createdAt,value
2022-11-01T00:01:06.155Z,15.33
2022-11-01T00:03:32.775Z,15.33
2022-11-01T00:05:59.397Z,15.33
2022-11-01T00:08:25.809Z,15.35
2022-11-01T00:10:52.194Z,15.26
2022-11-01T00:13:18.601Z,15.32
2022-11-01T00:15:45.306Z,15.32
2022-11-01T00:18:11.856Z,15.34
2022-11-01T00:20:38.188Z,15.33
2022-11-01T00:23:04.923Z,15.26
2022-11-01T00:25:31.598Z,15.28
2022-11-01T00:27:58.011Z,15.27
2022-11-01T00:30:24.469Z,15.26
2022-11-01T00:32:50.886Z,15.33
2022-11-01T00:35:17.279Z,15.35
2022-11-01T00:37:43.797Z,15.34
2022-11-01T00:40:10.775Z,15.32
2022-11-01T00:42:37.185Z,15.19
2022-11-01T00:45:05.062Z,15.23
2022-11-01T00:47:31.433Z,15.22
2022-11-01T00:49:57.912Z,15.35
2022-11-01T00:52:24.310Z,15.37
2022-11-01T00:54:50.739Z,15.38
2022-11-01T00:57:17.225Z,15.30
2022-11-01T00:59:43.721Z,15.33
2022-11-01T01:02:10.291Z,15.27
2022-11-01T01:04:42.306Z,15.40
2022-11-01T01:07:12.249Z,15.28
2022-11-01T01:09:38.716Z,15.34
2022-11-01T01:12:06.007Z,15.43
2022-11-01T01:14:32.768Z,15.36
2022-11-01T01:16:59.262Z,15.33
2022-11-01T01:19:25.730Z,15.41
2022-11-01T01:21:52.130Z,15.40
2022-11-01T01:24:18.507Z,15.51
2022-11-01T01:26:44.877Z,15.49
2022-11-01T01:29:14.088Z,15.47
2022-11-01T01:31:42.247Z,15.40
2022-11-01T01:34:08.866Z,15.40
2022-11-01T01:36:35.271Z,15.54
2022-11-01T01:39:01.636Z,15.57
2022-11-01T01:41:46.628Z,15.56
2022-11-01T01:44:50.712Z,15.66
2022-11-01T01:47:22.993Z,15.62
2022-11-01T01:52:31.630Z,15.64
2022-11-01T01:55:01.536Z,15.59
2022-11-01T01:57:28.314Z,15.70
2022-11-01T01:59:54.745Z,15.58
2022-11-01T02:02:21.779Z,15.61
2022-11-01T02:04:54.048Z,15.76
2022-11-01T02:07:20.423Z,15.74
2022-11-01T02:09:47.610Z,15.77
2022-11-01T02:12:14.774Z,15.77
2022-11-01T02:14:45.447Z,15.71
2022-11-01T02:17:43.290Z,15.88
2022-11-01T02:20:34.349Z,15.88
2022-11-01T02:23:12.560Z,15.88
2022-11-01T02:26:18.069Z,15.92
2022-11-01T02:29:07.829Z,15.89
2022-11-01T02:31:52.591Z,15.98
2022-11-01T02:34:23.236Z,15.96
2022-11-01T02:37:02.399Z,15.87
2022-11-01T02:39:35.773Z,15.90
2022-11-01T02:42:07.826Z,15.98
2022-11-01T02:44:39.943Z,15.96
2022-11-01T02:47:07.486Z,16.01
2022-11-01T02:49:42.462Z,16.01
2022-11-01T02:52:13.392Z,15.99
2022-11-01T02:54:43.611Z,16.06
2022-11-01T02:57:21.922Z,16.21
2022-11-01T02:59:49.008Z,16.05
2022-11-01T03:02:39.452Z,16.11
2022-11-01T03:05:10.534Z,16.12
2022-11-01T03:07:38.605Z,16.12
2022-11-01T03:10:05.522Z,16.02
2022-11-01T03:12:40.742Z,16.15
2022-11-01T03:15:21.085Z,16.12
2022-11-01T03:17:53.505Z,16.19
2022-11-01T03:20:19.862Z,16.21
2022-11-01T03:22:48.609Z,16.22
2022-11-01T03:25:39.608Z,16.27
2022-11-01T03:28:12.366Z,16.27
2022-11-01T03:30:44.313Z,16.28
2022-11-01T03:33:13.737Z,16.25
2022-11-01T03:35:44.860Z,16.15
2022-11-01T03:38:15.749Z,16.32
2022-11-01T03:40:47.941Z,16.29
2022-11-01T03:43:17.094Z,16.33
2022-11-01T03:45:43.894Z,16.33
2022-11-01T03:48:12.595Z,16.34
2022-11-01T03:50:40.269Z,16.31
2022-11-01T03:53:06.617Z,16.28
2022-11-01T03:55:32.996Z,16.34
2022-11-01T03:58:00.300Z,16.34
2022-11-01T04:00:29.917Z,16.37
2022-11-01T04:02:57.890Z,16.37
2022-11-01T04:05:26.884Z,16.39
2022-11-01T04:07:53.450Z,16.37
2022-11-01T04:10:22.127Z,16.30
2022-11-01T04:12:50.233Z,16.34
2022-11-01T04:15:36.746Z,16.34
2022-11-01T04:18:29.700Z,16.33
2022-11-01T04:20:59.090Z,16.29
2022-11-01T04:23:31.328Z,16.25
2022-11-01T04:25:57.838Z,16.27
2022-11-01T04:28:24.344Z,16.21
2022-11-01T04:30:50.769Z,16.11
2022-11-01T04:33:17.332Z,16.19
2022-11-01T04:35:43.906Z,16.05
2022-11-01T04:38:14.023Z,16.16
2022-11-01T04:40:41.665Z,16.10
2022-11-01T04:43:08.348Z,15.96
2022-11-01T04:45:34.802Z,16.08
2022-11-01T04:48:03.857Z,16.08
2022-11-01T04:50:30.801Z,16.05
2022-11-01T04:52:59.536Z,16.02
2022-11-01T04:55:27.783Z,16.06
2022-11-01T04:57:54.592Z,15.91
2022-11-01T05:00:22.928Z,16.00
2022-11-01T05:02:49.923Z,16.06
2022-11-01T05:05:16.937Z,15.93
2022-11-01T05:07:43.338Z,16.04
2022-11-01T05:10:11.700Z,16.04
2022-11-01T05:12:38.065Z,15.99
2022-11-01T05:15:05.326Z,16.02
2022-11-01T05:17:31.689Z,15.89
2022-11-01T05:19:58.107Z,15.97
2022-11-01T05:22:24.464Z,15.96
2022-11-01T05:24:50.866Z,16.05
2022-11-01T05:27:17.205Z,15.99
2022-11-01T05:29:43.561Z,16.03
2022-11-01T05:32:09.905Z,16.05
2022-11-01T05:34:36.362Z,16.02
2022-11-01T05:37:02.742Z,15.96
2022-11-01T05:39:29.160Z,16.04
2022-11-01T05:42:00.072Z,16.12
2022-11-01T05:44:29.575Z,16.01
2022-11-01T05:46:55.938Z,16.13
2022-11-01T05:49:25.498Z,16.12
2022-11-01T05:51:51.875Z,16.11
2022-11-01T05:54:18.255Z,16.13
2022-11-01T05:56:44.609Z,16.06
2022-11-01T05:59:11.003Z,16.13
2022-11-01T06:01:37.588Z,16.09
2022-11-01T06:04:05.451Z,16.04
2022-11-01T06:06:32.703Z,16.15
2022-11-01T06:08:59.863Z,16.08
2022-11-01T06:11:27.594Z,16.08
2022-11-01T06:13:58.404Z,16.18
2022-11-01T06:16:26.301Z,16.08
2022-11-01T06:18:53.734Z,16.20
2022-11-01T06:21:30.146Z,16.16
2022-11-01T06:23:57.019Z,16.13
2022-11-01T06:26:23.468Z,16.21
2022-11-01T06:28:50.023Z,16.11
2022-11-01T06:31:16.449Z,16.22
2022-11-01T06:33:43.134Z,16.23
2022-11-01T06:36:09.581Z,16.08
2022-11-01T06:38:36.199Z,16.24
2022-11-01T06:41:02.970Z,16.13
2022-11-01T06:43:29.357Z,16.11
2022-11-01T06:45:58.719Z,16.26
2022-11-01T06:48:25.080Z,16.21
2022-11-01T06:50:53.715Z,16.21
2022-11-01T06:53:20.345Z,16.31
2022-11-01T06:55:46.695Z,16.31
2022-11-01T06:58:13.079Z,16.27
2022-11-01T07:00:39.483Z,16.28
2022-11-01T07:03:08.067Z,16.35
2022-11-01T07:05:37.383Z,16.37
2022-11-01T07:08:07.414Z,16.24
2022-11-01T07:10:34.027Z,16.43
2022-11-01T07:13:05.387Z,16.30
2022-11-01T07:15:32.335Z,16.46
2022-11-01T07:18:01.584Z,16.26
2022-11-01T07:20:30.439Z,16.42
2022-11-01T07:22:58.322Z,16.44
2022-11-01T07:25:24.977Z,16.53
2022-11-01T07:27:51.341Z,16.41
2022-11-01T07:30:17.851Z,16.47
2022-11-01T07:32:44.346Z,16.62
2022-11-01T07:35:13.018Z,16.62
2022-11-01T07:37:39.546Z,16.67
2022-11-01T07:40:06.567Z,16.71
2022-11-01T07:42:33.000Z,16.65
2022-11-01T07:44:59.339Z,16.77
2022-11-01T07:47:25.775Z,16.73
2022-11-01T07:49:52.878Z,16.90
2022-11-01T07:52:19.330Z,16.91
2022-11-01T07:54:45.677Z,16.97
2022-11-01T07:57:12.010Z,17.10
2022-11-01T07:59:38.373Z,16.99
2022-11-01T08:02:07.882Z,17.10
2022-11-01T08:04:35.095Z,17.33
2022-11-01T08:07:01.609Z,17.22
2022-11-01T08:09:28.089Z,17.23
2022-11-01T08:11:54.421Z,17.51
2022-11-01T08:14:21.006Z,17.46
2022-11-01T08:16:57.626Z,17.64
2022-11-01T08:19:24.057Z,17.76
2022-11-01T08:21:51.028Z,17.76
2022-11-01T08:24:17.915Z,17.95
2022-11-01T08:26:44.367Z,17.97
2022-11-01T08:29:10.870Z,18.08
2022-11-01T08:31:45.284Z,18.07
2022-11-01T08:34:14.544Z,18.29
2022-11-01T08:36:42.427Z,18.28
2022-11-01T08:41:37.418Z,18.46
2022-11-01T08:44:04.120Z,18.49
2022-11-01T08:46:30.493Z,18.56
2022-11-01T08:48:59.154Z,18.54
2022-11-01T08:51:26.182Z,18.58
2022-11-01T08:53:56.808Z,18.70
2022-11-01T08:56:24.767Z,18.65
2022-11-01T08:58:52.772Z,18.72
2022-11-01T09:01:20.075Z,18.82
2022-11-01T09:03:47.082Z,18.86
2022-11-01T09:06:13.815Z,18.92
2022-11-01T09:08:40.297Z,19.00
2022-11-01T09:11:06.785Z,18.96
2022-11-01T09:13:34.472Z,19.13
2022-11-01T09:16:06.108Z,19.35
2022-11-01T09:18:32.964Z,19.46
2022-11-01T09:21:00.028Z,19.56
2022-11-01T09:23:26.974Z,19.64
2022-11-01T09:25:53.832Z,19.67
2022-11-01T09:28:20.287Z,19.69
2022-11-01T09:30:50.183Z,19.78
2022-11-01T09:33:23.723Z,19.78
2022-11-01T09:35:56.712Z,19.72
2022-11-01T09:38:25.173Z,19.78
2022-11-01T09:41:05.564Z,19.78
2022-11-01T09:43:36.995Z,19.78
2022-11-01T09:46:05.800Z,19.82
2022-11-01T09:48:34.271Z,19.73
2022-11-01T09:51:10.770Z,19.79
2022-11-01T09:53:37.175Z,19.74
2022-11-01T09:56:14.085Z,19.80
2022-11-01T09:59:02.137Z,19.72
2022-11-01T10:01:46.711Z,19.76
2022-11-01T10:04:34.150Z,19.72
2022-11-01T10:07:32.539Z,19.63
2022-11-01T10:10:18.814Z,19.71
2022-11-01T10:12:45.226Z,19.70
2022-11-01T10:15:14.285Z,19.64
2022-11-01T10:17:52.967Z,19.63
2022-11-01T10:20:29.347Z,19.59
2022-11-01T10:22:57.545Z,19.60
2022-11-01T10:25:28.512Z,19.59
2022-11-01T10:28:19.987Z,19.56
2022-11-01T10:30:52.605Z,19.55
2022-11-01T10:33:27.618Z,19.44
2022-11-01T10:36:10.137Z,19.59
2022-11-01T10:39:29.883Z,19.60
2022-11-01T10:41:37.126Z,19.60
2022-11-01T10:44:27.925Z,19.73
2022-11-01T10:46:55.851Z,19.87
2022-11-01T10:49:40.538Z,19.99
2022-11-01T10:52:20.375Z,19.96
2022-11-01T10:54:47.994Z,19.83
2022-11-01T10:57:26.686Z,20.02
2022-11-01T10:59:56.861Z,19.96
2022-11-01T11:02:43.144Z,20.03
2022-11-01T11:05:14.029Z,20.02
2022-11-01T11:07:41.539Z,19.82
2022-11-01T11:10:26.714Z,19.89
2022-11-01T11:13:02.311Z,19.98
2022-11-01T11:16:01.581Z,20.11
2022-11-01T11:18:42.125Z,20.05
2022-11-01T11:21:11.907Z,20.21
2022-11-01T11:23:44.114Z,20.48
2022-11-01T11:26:17.572Z,20.67
2022-11-01T11:28:48.939Z,20.77
2022-11-01T11:31:22.997Z,20.99
2022-11-01T11:33:53.743Z,21.21
2022-11-01T11:36:29.236Z,21.26
2022-11-01T11:38:55.887Z,21.31
2022-11-01T11:41:41.840Z,21.46
2022-11-01T11:44:45.906Z,21.50
2022-11-01T11:47:28.192Z,21.35
2022-11-01T11:49:57.987Z,21.40
2022-11-01T11:52:37.945Z,21.53
2022-11-01T11:55:06.132Z,21.55
2022-11-01T11:57:33.355Z,21.51
2022-11-01T12:00:03.011Z,21.58
2022-11-01T12:02:37.358Z,21.72
2022-11-01T12:05:09.485Z,21.72
2022-11-01T12:07:45.254Z,21.58
2022-11-01T12:10:28.676Z,21.72
2022-11-01T12:12:56.772Z,21.71
2022-11-01T12:15:38.544Z,21.74
2022-11-01T12:18:15.881Z,21.71
2022-11-01T12:20:43.853Z,21.41
2022-11-01T12:23:24.137Z,21.51
2022-11-01T12:25:51.647Z,21.45
2022-11-01T12:28:29.568Z,21.55
2022-11-01T12:31:03.084Z,21.61
2022-11-01T12:33:36.108Z,21.61
2022-11-01T12:36:02.966Z,21.52
2022-11-01T12:38:32.423Z,21.62
2022-11-01T12:41:13.748Z,21.63
2022-11-01T12:43:53.159Z,21.69
2022-11-01T12:46:28.798Z,21.63
2022-11-01T12:49:03.215Z,21.61
2022-11-01T12:51:37.824Z,21.56
2022-11-01T12:54:27.242Z,21.56
2022-11-01T12:56:55.384Z,21.61
2022-11-01T12:59:29.142Z,21.67
2022-11-01T13:02:09.626Z,21.54
2022-11-01T13:04:42.057Z,21.57
2022-11-01T13:07:23.055Z,21.59
2022-11-01T13:10:07.932Z,21.56
2022-11-01T13:12:48.887Z,21.52
2022-11-01T13:15:25.607Z,21.57
2022-11-01T13:18:23.819Z,21.70
2022-11-01T13:21:08.373Z,21.69
2022-11-01T13:23:53.178Z,21.63
2022-11-01T13:26:29.993Z,21.65
2022-11-01T13:29:17.371Z,21.58
2022-11-01T13:32:04.108Z,21.49
2022-11-01T13:34:52.258Z,21.23
2022-11-01T13:37:32.797Z,20.82
2022-11-01T13:40:21.798Z,20.74
2022-11-01T13:42:59.737Z,20.49
2022-11-01T13:45:29.369Z,20.34
2022-11-01T13:48:11.300Z,20.21
2022-11-01T13:51:15.340Z,20.10
2022-11-01T13:53:52.953Z,19.96
2022-11-01T13:56:32.068Z,19.95
2022-11-01T13:58:58.814Z,19.96
2022-11-01T14:01:29.942Z,20.09
2022-11-01T14:04:14.810Z,20.26
2022-11-01T14:06:43.629Z,20.29
2022-11-01T14:09:28.084Z,20.42
2022-11-01T14:11:57.336Z,20.53
2022-11-01T14:14:29.471Z,20.64
2022-11-01T14:17:21.294Z,20.70
2022-11-01T14:19:49.909Z,20.59
2022-11-01T14:22:22.513Z,20.64
2022-11-01T14:25:00.804Z,20.54
2022-11-01T14:27:35.963Z,20.42
2022-11-01T14:30:14.490Z,20.28
2022-11-01T14:32:43.702Z,20.21
2022-11-01T14:35:13.222Z,20.13
2022-11-01T14:37:44.277Z,19.89
2022-11-01T14:40:19.658Z,19.87
2022-11-01T14:42:48.654Z,19.73
2022-11-01T14:45:39.579Z,19.73
2022-11-01T14:48:16.452Z,19.58
2022-11-01T14:50:52.367Z,19.52
2022-11-01T14:53:19.818Z,19.53
2022-11-01T14:55:46.396Z,19.48
2022-11-01T14:58:18.670Z,19.44
2022-11-01T15:00:46.773Z,19.29
2022-11-01T15:03:14.122Z,19.23
2022-11-01T15:05:58.466Z,19.12
2022-11-01T15:08:40.402Z,18.97
2022-11-01T15:11:07.691Z,18.80
2022-11-01T15:13:39.062Z,18.72
2022-11-01T15:16:19.707Z,18.62
2022-11-01T15:18:53.790Z,18.39
2022-11-01T15:21:25.743Z,18.32
2022-11-01T15:24:00.250Z,18.11
2022-11-01T15:26:32.770Z,18.03
2022-11-01T15:29:04.992Z,17.91
2022-11-01T15:31:34.217Z,17.86
2022-11-01T15:34:19.288Z,17.77
2022-11-01T15:36:45.873Z,17.56
2022-11-01T15:39:19.270Z,17.49
2022-11-01T15:41:46.642Z,17.44
2022-11-01T15:44:32.300Z,17.42
2022-11-01T15:47:01.117Z,17.25
2022-11-01T15:49:40.560Z,17.22
2022-11-01T15:52:21.181Z,17.18
2022-11-01T15:54:54.838Z,17.02
2022-11-01T15:57:37.714Z,16.97
2022-11-01T16:00:07.275Z,16.90
2022-11-01T16:02:40.034Z,16.77
2022-11-01T16:05:08.959Z,16.69
2022-11-01T16:07:35.621Z,16.65
2022-11-01T16:10:05.081Z,16.54
2022-11-01T16:12:35.930Z,16.41
2022-11-01T16:15:19.799Z,16.37
2022-11-01T16:17:46.820Z,16.11
2022-11-01T16:20:36.609Z,16.10
2022-11-01T16:23:14.256Z,15.94
2022-11-01T16:25:40.954Z,15.79
2022-11-01T16:28:10.328Z,15.66
2022-11-01T16:30:51.069Z,15.52
2022-11-01T16:33:27.805Z,15.42
2022-11-01T16:36:03.240Z,15.35
2022-11-01T16:38:32.660Z,15.24
2022-11-01T16:41:01.864Z,15.16
2022-11-01T16:43:31.261Z,15.07
2022-11-01T16:45:58.752Z,15.01
2022-11-01T16:48:34.580Z,14.91
2022-11-01T16:51:02.016Z,14.93
2022-11-01T16:53:30.350Z,14.88
2022-11-01T16:56:30.611Z,14.93
2022-11-01T16:58:57.561Z,14.93
2022-11-01T17:01:34.361Z,14.98
2022-11-01T17:04:02.478Z,15.02
2022-11-01T17:06:28.945Z,15.06
2022-11-01T17:08:55.446Z,15.11
2022-11-01T17:11:22.037Z,15.16
2022-11-01T17:13:48.532Z,15.16
2022-11-01T17:16:27.305Z,15.27
2022-11-01T17:18:57.482Z,15.22
2022-11-01T17:21:25.027Z,15.35
2022-11-01T17:23:52.657Z,15.24
2022-11-01T17:26:19.651Z,15.25
2022-11-01T17:28:51.340Z,15.11
2022-11-01T17:31:18.880Z,15.26
2022-11-01T17:33:45.489Z,15.23
2022-11-01T17:36:16.317Z,15.18
2022-11-01T17:38:44.793Z,15.24
2022-11-01T17:41:19.610Z,15.30
2022-11-01T17:43:45.970Z,15.24
2022-11-01T17:46:20.178Z,15.30
2022-11-01T17:48:46.624Z,15.20
2022-11-01T17:51:13.144Z,15.32
2022-11-01T17:53:41.985Z,15.30
2022-11-01T17:56:08.660Z,15.28
2022-11-01T17:58:35.592Z,15.18
2022-11-01T18:01:02.746Z,15.10
2022-11-01T18:03:29.196Z,15.17
2022-11-01T18:05:58.095Z,15.12
2022-11-01T18:08:26.932Z,15.15
2022-11-01T18:11:26.016Z,15.16
2022-11-01T18:14:26.248Z,15.12
2022-11-01T18:16:58.577Z,15.20
2022-11-01T18:19:58.341Z,15.13
2022-11-01T18:22:55.857Z,15.05
2022-11-01T18:25:37.357Z,15.03
2022-11-01T18:28:15.770Z,15.02
2022-11-01T18:30:47.394Z,15.00
2022-11-01T18:33:37.605Z,14.98
2022-11-01T18:36:58.246Z,15.06
2022-11-01T18:39:30.785Z,15.03
2022-11-01T18:42:00.558Z,14.94
2022-11-01T18:44:27.501Z,14.97
2022-11-01T18:47:06.025Z,14.97
2022-11-01T18:49:32.434Z,14.97
2022-11-01T18:51:59.057Z,14.92
2022-11-01T18:54:30.194Z,14.92
2022-11-01T18:56:58.548Z,14.86
2022-11-01T18:59:32.855Z,14.85
2022-11-01T19:02:03.370Z,14.83
2022-11-01T19:04:31.533Z,14.82
2022-11-01T19:07:10.046Z,14.79
2022-11-01T19:09:38.575Z,14.72
2022-11-01T19:12:25.512Z,14.70
2022-11-01T19:15:16.230Z,14.70
2022-11-01T19:17:43.599Z,14.70
2022-11-01T19:20:30.782Z,14.78
2022-11-01T19:23:03.209Z,14.72
2022-11-01T19:25:35.549Z,14.73
2022-11-01T19:28:11.118Z,14.68
2022-11-01T19:30:38.483Z,14.74
2022-11-01T19:33:18.382Z,14.76
2022-11-01T19:35:44.892Z,14.66
2022-11-01T19:38:15.800Z,14.75
2022-11-01T19:40:42.446Z,14.70
2022-11-01T19:43:13.615Z,14.78
2022-11-01T19:46:00.440Z,14.87
2022-11-01T19:48:29.926Z,14.75
2022-11-01T19:50:56.331Z,14.78
2022-11-01T19:53:32.246Z,14.91
2022-11-01T19:56:07.704Z,14.91
2022-11-01T19:58:45.697Z,14.94
2022-11-01T20:01:21.272Z,14.96
2022-11-01T20:03:55.353Z,14.95
2022-11-01T20:06:30.991Z,14.96
2022-11-01T20:09:13.236Z,14.93
2022-11-01T20:11:39.686Z,14.92
2022-11-01T20:14:06.121Z,14.87
2022-11-01T20:16:32.496Z,14.93
2022-11-01T20:18:59.621Z,14.93
2022-11-01T20:21:26.041Z,14.91
2022-11-01T20:23:52.703Z,14.92
2022-11-01T20:26:19.146Z,14.95
2022-11-01T20:28:45.635Z,14.95
2022-11-01T20:31:12.299Z,14.98
2022-11-01T20:33:38.645Z,14.98
2022-11-01T20:36:10.786Z,14.94
2022-11-01T20:38:38.224Z,14.97
2022-11-01T20:41:04.756Z,14.90
2022-11-01T20:43:31.190Z,14.97
2022-11-01T20:45:57.772Z,14.94
2022-11-01T20:48:25.181Z,14.96
2022-11-01T20:50:52.285Z,14.92
2022-11-01T20:53:18.766Z,14.97
2022-11-01T20:55:45.532Z,14.97
2022-11-01T20:58:14.068Z,14.93
2022-11-01T21:00:40.433Z,14.99
2022-11-01T21:03:16.252Z,15.00
2022-11-01T21:05:44.585Z,15.00
2022-11-01T21:08:16.309Z,14.99
2022-11-01T21:10:43.346Z,14.96
2022-11-01T21:13:27.778Z,14.98
2022-11-01T21:15:56.981Z,14.92
2022-11-01T21:18:39.251Z,14.86
2022-11-01T21:21:27.075Z,14.89
2022-11-01T21:23:53.985Z,14.73
2022-11-01T21:26:28.526Z,14.86
2022-11-01T21:29:01.393Z,14.82
2022-11-01T21:31:33.097Z,14.82
2022-11-01T21:34:14.501Z,14.81
2022-11-01T21:36:42.743Z,14.80
2022-11-01T21:39:17.509Z,14.77
2022-11-01T21:41:46.173Z,14.74
2022-11-01T21:44:18.483Z,14.81
2022-11-01T21:46:54.173Z,14.69
2022-11-01T21:49:27.933Z,14.71
2022-11-01T21:51:56.440Z,14.80
2022-11-01T21:54:23.095Z,14.69
2022-11-01T21:56:49.678Z,14.72
2022-11-01T21:59:16.992Z,14.61
2022-11-01T22:01:45.270Z,14.65
2022-11-01T22:04:15.613Z,14.80
2022-11-01T22:06:42.048Z,14.89
2022-11-01T22:09:09.453Z,14.67
2022-11-01T22:11:36.752Z,14.79
2022-11-01T22:14:03.936Z,14.79
2022-11-01T22:16:30.328Z,14.64
2022-11-01T22:18:59.324Z,14.61
2022-11-01T22:21:26.017Z,14.63
2022-11-01T22:23:52.451Z,14.68
2022-11-01T22:26:18.958Z,14.66
2022-11-01T22:28:45.388Z,14.68
2022-11-01T22:31:15.314Z,14.58
2022-11-01T22:33:42.329Z,14.60
2022-11-01T22:36:14.102Z,14.65
2022-11-01T22:38:43.158Z,14.65
2022-11-01T22:41:22.461Z,14.62
2022-11-01T22:43:50.133Z,14.51
2022-11-01T22:46:28.479Z,14.60
2022-11-01T22:49:09.710Z,14.54
2022-11-01T22:51:42.881Z,14.55
2022-11-01T22:54:25.338Z,14.57
2022-11-01T22:57:01.188Z,14.56
2022-11-01T22:59:34.027Z,14.60
2022-11-01T23:02:21.944Z,14.58
2022-11-01T23:04:49.322Z,14.57
2022-11-01T23:07:39.659Z,14.61
2022-11-01T23:10:19.546Z,14.75
2022-11-01T23:13:04.476Z,14.65
2022-11-01T23:15:33.586Z,14.66
2022-11-01T23:18:15.178Z,14.55
2022-11-01T23:20:41.910Z,14.55
2022-11-01T23:23:18.639Z,14.58
2022-11-01T23:25:45.327Z,14.43
2022-11-01T23:28:13.022Z,14.54
2022-11-01T23:30:44.522Z,14.47
2022-11-01T23:33:13.675Z,14.52
2022-11-01T23:35:42.231Z,14.41
2022-11-01T23:38:19.889Z,14.50
2022-11-01T23:40:46.784Z,14.36
2022-11-01T23:43:37.384Z,14.47
2022-11-01T23:46:04.723Z,14.45
2022-11-01T23:48:31.142Z,14.44
2022-11-01T23:50:58.288Z,14.32
2022-11-01T23:53:38.105Z,14.43
2022-11-01T23:56:07.908Z,14.36
2022-11-01T23:58:35.919Z,14.42
